Time;durP1;ratioP1;P1;durP2;ratioP2;P2;SDS_P1;SDS_P2;PMS_P1;PMS_P2;Temp;Humidity;BMP_temperature;BMP_pressure;BME280_temperature;BME280_humidity;BME280_pressure;Samples;Min_cycle;Max_cycle;Signal;HPM_P1;HPM_P2
2022/11/25 00:01:59;;;;;;;17.98;2.85;;;6.70;99.90;;;;;;5055159;28;20052;-33
2022/11/25 00:04:25;;;;;;;19.13;2.92;;;6.70;99.90;;;;;;5054485;28;20467;-32
2022/11/25 00:06:51;;;;;;;19.67;3.75;;;6.70;99.90;;;;;;5055068;28;20051;-33
2022/11/25 00:09:16;;;;;;;14.85;2.67;;;6.70;99.90;;;;;;5054951;28;20600;-33
2022/11/25 00:11:42;;;;;;;19.70;3.35;;;6.80;99.90;;;;;;5054668;28;20129;-34
2022/11/25 00:14:13;;;;;;;23.15;4.13;;;6.60;99.90;;;;;;5053138;28;20375;-34
2022/11/25 00:16:39;;;;;;;18.17;3.15;;;6.70;99.90;;;;;;5053247;28;20041;-34
2022/11/25 00:19:05;;;;;;;19.63;3.03;;;6.80;99.90;;;;;;5086806;28;20049;-33
2022/11/25 00:21:33;;;;;;;14.73;3.20;;;6.80;99.90;;;;;;5054215;28;20048;-35
2022/11/25 00:24:01;;;;;;;23.75;3.08;;;6.80;99.90;;;;;;5054098;28;20048;-33
2022/11/25 00:26:29;;;;;;;17.95;3.78;;;6.80;99.90;;;;;;5054077;28;20083;-33
2022/11/25 00:28:57;;;;;;;19.02;2.75;;;6.80;99.90;;;;;;5054066;28;20048;-34
2022/11/25 00:31:30;;;;;;;17.85;3.72;;;6.90;99.90;;;;;;5054049;28;20437;-34
2022/11/25 00:33:57;;;;;;;14.02;2.75;;;6.90;99.90;;;;;;5054888;28;20037;-33
2022/11/25 00:36:25;;;;;;;20.35;3.10;;;6.90;99.90;;;;;;5053909;28;20534;-34
2022/11/25 00:38:59;;;;;;;19.58;3.70;;;6.90;99.90;;;;;;5054699;28;20045;-34
2022/11/25 00:46:56;;;;;;;18.42;3.50;;;7.00;99.90;;;;;;5054731;28;20379;-34
2022/11/25 00:49:22;;;;;;;17.88;3.15;;;7.00;99.90;;;;;;5053764;28;20041;-34
2022/11/25 00:51:48;;;;;;;18.70;4.03;;;7.00;99.90;;;;;;5053596;28;20033;-34
2022/11/25 00:54:14;;;;;;;15.15;4.05;;;7.00;99.90;;;;;;5053915;28;20049;-34
2022/11/25 00:56:40;;;;;;;17.98;3.97;;;7.00;99.90;;;;;;5053957;28;20099;-35
2022/11/25 00:59:06;;;;;;;21.85;3.85;;;7.10;99.90;;;;;;5053067;28;20049;-34
2022/11/25 01:01:32;;;;;;;19.48;2.90;;;7.00;99.90;;;;;;5053623;28;20045;-33
2022/11/25 01:03:58;;;;;;;22.85;4.10;;;7.00;99.90;;;;;;5053487;28;20052;-35
2022/11/25 01:06:24;;;;;;;17.52;4.05;;;7.10;99.90;;;;;;5053616;28;20051;-35
2022/11/25 01:08:50;;;;;;;18.42;2.88;;;7.10;99.90;;;;;;5053875;28;20076;-34
2022/11/25 01:11:18;;;;;;;16.52;2.88;;;7.00;99.90;;;;;;5053517;28;20079;-34
2022/11/25 01:13:44;;;;;;;22.25;3.85;;;7.00;99.90;;;;;;5053456;28;20033;-36
2022/11/25 01:16:16;;;;;;;17.42;4.03;;;7.10;99.90;;;;;;5052218;28;20048;-36
2022/11/25 01:18:42;;;;;;;13.02;3.50;;;7.00;99.90;;;;;;5054046;28;20037;-34
2022/11/25 01:21:13;;;;;;;17.73;3.92;;;7.00;99.90;;;;;;5052248;28;20103;-34
2022/11/25 01:23:40;;;;;;;17.00;3.22;;;7.10;99.90;;;;;;5053453;28;20136;-34
2022/11/25 01:26:11;;;;;;;18.58;2.85;;;7.00;99.90;;;;;;5053705;28;20041;-34
2022/11/25 01:28:37;;;;;;;24.98;3.78;;;7.00;99.90;;;;;;5053450;28;20041;-34
2022/11/25 01:31:05;;;;;;;18.48;4.60;;;7.10;99.90;;;;;;5053310;28;20194;-33
2022/11/25 01:33:32;;;;;;;17.80;3.30;;;7.00;99.90;;;;;;5053771;28;20102;-34
2022/11/25 01:36:02;;;;;;;17.80;4.13;;;7.00;99.90;;;;;;5057332;28;20048;-34
2022/11/25 01:38:29;;;;;;;18.88;4.38;;;6.90;99.90;;;;;;5056691;28;20056;-34
2022/11/25 01:40:54;;;;;;;19.95;3.60;;;6.90;99.90;;;;;;5057501;28;20045;-34
2022/11/25 01:43:20;;;;;;;23.48;4.18;;;6.90;99.90;;;;;;5057123;28;20102;-36
2022/11/25 01:45:46;;;;;;;22.40;4.05;;;6.80;99.90;;;;;;5057115;28;20413;-34
2022/11/25 01:48:18;;;;;;;13.07;3.15;;;6.80;99.90;;;;;;5056918;28;20504;-34
2022/11/25 01:50:46;;;;;;;16.80;3.53;;;6.80;99.90;;;;;;5057913;28;20048;-34
2022/11/25 01:53:13;;;;;;;17.20;3.53;;;6.80;99.90;;;;;;5056754;28;20287;-35
2022/11/25 01:55:43;;;;;;;27.98;4.03;;;6.80;99.90;;;;;;5056632;28;20479;-34
2022/11/25 01:58:17;;;;;;;23.30;3.47;;;6.80;99.90;;;;;;5057221;28;20129;-33
2022/11/25 02:00:50;;;;;;;14.00;3.88;;;6.80;99.90;;;;;;5055643;28;20207;-34
2022/11/25 02:03:22;;;;;;;26.08;3.47;;;6.90;99.90;;;;;;5056506;28;20049;-33
2022/11/25 02:05:51;;;;;;;20.83;3.85;;;6.90;99.90;;;;;;5057374;28;20115;-33
2022/11/25 02:08:19;;;;;;;22.92;4.45;;;6.90;99.90;;;;;;5055541;28;20044;-33
2022/11/25 02:10:45;;;;;;;19.95;3.50;;;7.00;99.90;;;;;;5056652;28;20047;-32
2022/11/25 02:13:11;;;;;;;22.83;3.95;;;6.90;99.90;;;;;;5057227;28;20041;-33
2022/11/25 02:15:36;;;;;;;25.23;4.03;;;6.90;99.90;;;;;;5056752;28;20059;-32
2022/11/25 02:18:03;;;;;;;24.48;4.35;;;6.90;99.90;;;;;;5056496;28;20049;-32
2022/11/25 02:20:28;;;;;;;22.52;4.07;;;6.90;99.90;;;;;;5056461;28;20080;-32
2022/11/25 02:22:57;;;;;;;22.13;4.82;;;6.80;99.90;;;;;;5055466;28;20083;-32
2022/11/25 02:25:27;;;;;;;24.63;5.43;;;6.90;99.90;;;;;;5056354;28;20049;-31
2022/11/25 02:28:07;;;;;;;21.13;4.13;;;6.80;99.90;;;;;;5056628;28;20143;-30
2022/11/25 02:30:33;;;;;;;24.05;5.05;;;6.80;99.90;;;;;;5056434;28;20051;-31
2022/11/25 02:33:00;;;;;;;28.98;5.25;;;6.80;99.90;;;;;;5055280;28;20124;-32
2022/11/25 02:35:30;;;;;;;22.65;3.90;;;6.80;99.90;;;;;;5054962;28;20041;-31
2022/11/25 02:38:01;;;;;;;25.63;4.75;;;6.80;99.90;;;;;;5056768;28;20044;-31
2022/11/25 02:40:27;;;;;;;20.45;4.13;;;6.80;99.90;;;;;;5056142;28;20116;-31
2022/11/25 02:42:57;;;;;;;26.35;4.70;;;6.80;99.90;;;;;;5055974;28;20528;-32
2022/11/25 02:45:30;;;;;;;27.30;5.18;;;6.80;99.90;;;;;;5055394;28;20041;-32
2022/11/25 02:47:56;;;;;;;22.63;4.45;;;6.80;99.90;;;;;;5055693;28;20474;-32
2022/11/25 02:50:22;;;;;;;28.55;4.72;;;6.80;99.90;;;;;;5055970;28;20087;-33
2022/11/25 02:52:47;;;;;;;26.98;6.65;;;6.70;99.90;;;;;;5055599;28;20048;-33
2022/11/25 02:55:13;;;;;;;26.67;4.95;;;6.80;99.90;;;;;;5054590;28;20091;-31
2022/11/25 02:57:39;;;;;;;21.48;5.80;;;6.80;99.90;;;;;;5055444;28;20041;-31
2022/11/25 03:00:06;;;;;;;21.98;5.88;;;6.80;99.90;;;;;;5056301;28;20052;-31
2022/11/25 03:02:32;;;;;;;23.77;5.97;;;6.90;99.90;;;;;;5056150;28;20033;-31
2022/11/25 03:04:58;;;;;;;21.60;6.15;;;6.90;99.90;;;;;;5055713;28;20154;-32
2022/11/25 03:07:24;;;;;;;22.27;5.13;;;6.90;99.90;;;;;;5055582;28;20494;-32
2022/11/25 03:09:50;;;;;;;17.02;4.88;;;6.90;99.90;;;;;;5054577;28;20036;-33
2022/11/25 03:12:18;;;;;;;24.10;5.55;;;6.90;99.90;;;;;;5055550;28;20080;-33
2022/11/25 03:14:44;;;;;;;27.38;6.80;;;6.90;99.90;;;;;;5055904;28;20051;-33
2022/11/25 03:17:10;;;;;;;24.70;5.68;;;7.00;99.90;;;;;;5055410;28;20123;-32
2022/11/25 03:19:36;;;;;;;27.63;6.18;;;7.00;99.90;;;;;;5055382;28;20040;-33
2022/11/25 03:22:02;;;;;;;26.85;6.90;;;7.10;99.90;;;;;;5055393;28;20099;-32
2022/11/25 03:24:28;;;;;;;26.55;6.80;;;7.10;99.90;;;;;;5054228;28;20439;-32
2022/11/25 03:26:53;;;;;;;24.52;5.80;;;7.10;99.90;;;;;;5055211;28;20044;-32
2022/11/25 03:29:19;;;;;;;30.08;7.70;;;7.10;99.90;;;;;;5055693;28;20080;-33
2022/11/25 03:31:45;;;;;;;27.38;6.25;;;7.10;99.90;;;;;;5054785;28;20048;-32
2022/11/25 03:34:11;;;;;;;26.88;7.55;;;7.10;99.90;;;;;;5055623;28;20072;-33
2022/11/25 03:36:37;;;;;;;28.02;6.95;;;7.30;99.90;;;;;;5055006;28;20072;-32
2022/11/25 03:39:03;;;;;;;21.08;6.82;;;7.30;99.90;;;;;;5055038;28;20079;-34
2022/11/25 03:41:28;;;;;;;22.83;7.80;;;7.30;99.90;;;;;;5054914;28;20098;-32
2022/11/25 03:43:54;;;;;;;25.13;6.93;;;7.30;99.90;;;;;;5054508;28;20037;-33
2022/11/25 03:46:20;;;;;;;31.02;7.30;;;7.40;99.90;;;;;;5055376;28;20040;-33
2022/11/25 03:48:45;;;;;;;25.00;6.25;;;7.30;99.90;;;;;;5053325;28;20056;-33
2022/11/25 03:51:11;;;;;;;19.50;4.97;;;7.40;99.90;;;;;;5055269;28;20049;-32
2022/11/25 03:53:37;;;;;;;20.67;6.20;;;7.50;99.90;;;;;;5054687;28;20056;-33
2022/11/25 03:56:03;;;;;;;16.90;5.50;;;7.60;99.90;;;;;;5053424;28;20131;-32
2022/11/25 03:58:28;;;;;;;18.20;5.60;;;7.60;99.90;;;;;;5055117;28;20037;-33
2022/11/25 04:00:58;;;;;;;23.75;6.32;;;7.60;99.90;;;;;;5054827;28;20045;-33
2022/11/25 04:03:23;;;;;;;22.08;6.53;;;7.50;99.90;;;;;;5054418;28;20045;-33
2022/11/25 04:05:49;;;;;;;21.67;5.70;;;7.60;99.90;;;;;;5053758;28;20463;-33
2022/11/25 04:08:15;;;;;;;21.42;6.55;;;7.60;99.90;;;;;;5054959;28;20363;-33
2022/11/25 04:10:40;;;;;;;14.90;5.50;;;7.50;99.90;;;;;;5054902;28;20110;-34
2022/11/25 04:13:06;;;;;;;23.42;6.97;;;7.50;99.90;;;;;;5055110;28;20123;-34
2022/11/25 04:15:32;;;;;;;21.08;7.22;;;7.60;99.90;;;;;;5053222;28;20382;-36
2022/11/25 04:17:57;;;;;;;28.13;6.93;;;7.60;99.90;;;;;;5054177;28;20099;-37
2022/11/25 04:20:23;;;;;;;16.25;6.57;;;7.50;99.90;;;;;;5054139;28;20056;-39
2022/11/25 04:22:49;;;;;;;25.50;8.52;;;7.60;99.90;;;;;;5054622;28;20090;-37
2022/11/25 04:25:15;;;;;;;22.33;7.68;;;7.50;99.90;;;;;;5054111;28;20090;-40
2022/11/25 04:27:40;;;;;;;35.00;8.70;;;7.50;99.90;;;;;;5052865;28;20116;-38
2022/11/25 04:30:07;;;;;;;21.77;7.50;;;7.50;99.90;;;;;;5054284;28;20037;-40
2022/11/25 04:32:32;;;;;;;30.70;9.18;;;7.50;99.90;;;;;;5054503;28;20044;-38
2022/11/25 04:34:58;;;;;;;30.90;8.68;;;7.50;99.90;;;;;;5053908;28;20044;-37
2022/11/25 04:37:23;;;;;;;34.28;10.02;;;7.50;99.90;;;;;;5053859;28;20128;-38
2022/11/25 04:39:49;;;;;;;34.35;10.02;;;7.40;99.90;;;;;;5053842;28;20077;-38
2022/11/25 04:42:30;;;;;;;39.53;10.70;;;7.40;99.90;;;;;;5053773;28;20048;-38
2022/11/25 04:44:56;;;;;;;36.15;10.82;;;7.40;99.90;;;;;;5053817;28;20391;-35
2022/11/25 04:47:22;;;;;;;26.38;10.07;;;7.40;99.90;;;;;;5053815;28;20048;-38
2022/11/25 04:49:48;;;;;;;28.45;9.70;;;7.40;99.90;;;;;;5054295;28;20070;-37
2022/11/25 04:52:13;;;;;;;25.65;10.25;;;7.50;99.90;;;;;;5053688;28;20045;-39
2022/11/25 04:54:39;;;;;;;29.38;9.88;;;7.40;99.90;;;;;;5053807;28;20057;-41
2022/11/25 04:57:05;;;;;;;23.17;9.50;;;7.50;99.90;;;;;;5053655;28;20055;-38
2022/11/25 04:59:39;;;;;;;34.58;11.85;;;7.50;99.90;;;;;;5053606;28;20048;-41
2022/11/25 05:02:17;;;;;;;34.42;11.18;;;7.50;99.90;;;;;;5052812;28;20481;-37
2022/11/25 05:04:44;;;;;;;29.42;10.27;;;7.50;99.90;;;;;;5053689;28;20048;-39
2022/11/25 05:07:11;;;;;;;31.00;10.35;;;7.40;99.90;;;;;;5053382;28;20045;-42
2022/11/25 05:09:37;;;;;;;22.10;10.38;;;7.40;99.90;;;;;;5051774;28;20052;-37
2022/11/25 05:12:04;;;;;;;26.05;10.23;;;7.50;99.90;;;;;;5053515;28;20037;-39
2022/11/25 05:14:30;;;;;;;29.08;10.48;;;7.50;99.90;;;;;;5053443;28;20044;-39
2022/11/25 05:16:55;;;;;;;30.92;12.60;;;7.50;99.90;;;;;;5052223;28;20075;-40
2022/11/25 05:19:21;;;;;;;33.72;12.23;;;7.40;99.90;;;;;;5035676;28;20060;-36
2022/11/25 05:21:47;;;;;;;33.92;12.05;;;7.40;99.90;;;;;;5053473;28;20049;-38
2022/11/25 05:24:13;;;;;;;39.42;13.48;;;7.60;99.90;;;;;;5053335;28;20040;-36
2022/11/25 05:26:38;;;;;;;32.40;13.65;;;7.50;99.90;;;;;;5053415;28;20040;-36
2022/11/25 05:29:04;;;;;;;47.03;14.30;;;7.40;99.90;;;;;;5053330;28;20535;-35
2022/11/25 05:31:30;;;;;;;37.42;13.52;;;7.50;99.90;;;;;;5053332;28;20101;-36
2022/11/25 05:33:58;;;;;;;37.50;12.07;;;7.30;99.90;;;;;;5068769;28;20041;-35
2022/11/25 05:36:24;;;;;;;38.13;12.70;;;7.50;99.90;;;;;;5053326;28;20114;-36
2022/11/25 05:38:49;;;;;;;33.35;11.07;;;7.40;99.90;;;;;;5053242;28;20127;-37
2022/11/25 05:41:15;;;;;;;30.00;12.07;;;7.40;99.90;;;;;;5053179;28;20045;-38
2022/11/25 05:43:41;;;;;;;38.60;13.00;;;7.50;99.90;;;;;;5053171;28;20037;-36
2022/11/25 05:46:08;;;;;;;39.00;14.23;;;7.50;99.90;;;;;;5052025;28;20041;-36
2022/11/25 05:48:34;;;;;;;38.75;12.10;;;7.50;99.90;;;;;;5053676;28;20128;-35
2022/11/25 05:51:01;;;;;;;36.97;10.85;;;7.50;99.90;;;;;;5053609;28;20080;-37
2022/11/25 05:53:27;;;;;;;35.95;12.10;;;7.60;99.90;;;;;;5085789;28;20437;-35
2022/11/25 05:55:55;;;;;;;33.25;10.98;;;7.50;99.90;;;;;;5052093;28;20044;-35
2022/11/25 05:58:21;;;;;;;32.08;11.38;;;7.50;99.90;;;;;;5052097;28;20431;-35
2022/11/25 06:00:47;;;;;;;31.40;11.13;;;7.50;99.90;;;;;;5053006;28;20051;-37
2022/11/25 06:03:13;;;;;;;34.67;11.40;;;7.60;99.90;;;;;;5051682;28;20530;-36
2022/11/25 06:05:40;;;;;;;25.35;9.48;;;7.60;99.90;;;;;;5051799;28;20174;-36
2022/11/25 06:08:06;;;;;;;29.33;10.82;;;7.50;99.90;;;;;;5052993;28;20041;-36
2022/11/25 06:10:32;;;;;;;36.30;10.95;;;7.60;99.90;;;;;;5052964;28;20048;-36
2022/11/25 06:12:58;;;;;;;32.40;10.77;;;7.60;99.90;;;;;;5052644;28;20403;-36
2022/11/25 06:15:24;;;;;;;27.45;11.73;;;7.60;99.90;;;;;;5053457;28;20049;-38
2022/11/25 06:17:49;;;;;;;28.98;10.65;;;7.60;99.90;;;;;;5051636;28;20099;-35
2022/11/25 06:20:15;;;;;;;30.35;10.77;;;7.60;99.90;;;;;;5055748;28;20040;-35
2022/11/25 06:22:41;;;;;;;29.75;11.57;;;7.60;99.90;;;;;;5056334;28;20459;-36
2022/11/25 06:25:07;;;;;;;30.70;10.18;;;7.60;99.90;;;;;;5055246;28;20130;-35
2022/11/25 06:27:33;;;;;;;25.63;9.90;;;7.60;99.90;;;;;;5056371;28;20045;-35
2022/11/25 06:29:59;;;;;;;20.23;8.02;;;7.70;99.90;;;;;;5056385;28;20045;-35
2022/11/25 06:32:24;;;;;;;26.05;9.52;;;7.70;99.90;;;;;;5056280;28;20041;-38
2022/11/25 06:34:50;;;;;;;20.10;8.75;;;7.70;99.90;;;;;;5056308;28;20059;-39
2022/11/25 06:37:16;;;;;;;29.88;8.80;;;7.70;99.90;;;;;;5089552;28;20103;-39
2022/11/25 06:39:41;;;;;;;28.85;10.57;;;7.60;99.90;;;;;;5071825;28;20041;-37
2022/11/25 06:42:07;;;;;;;30.80;11.30;;;7.70;99.90;;;;;;5055032;28;20044;-38
2022/11/25 06:44:33;;;;;;;33.13;11.48;;;7.70;99.90;;;;;;5055285;28;20129;-37
2022/11/25 06:47:01;;;;;;;23.13;8.85;;;7.70;99.90;;;;;;5088636;28;20041;-38
2022/11/25 06:49:28;;;;;;;24.77;8.32;;;7.70;99.90;;;;;;5055503;28;20049;-36
2022/11/25 06:51:53;;;;;;;27.55;9.60;;;7.80;99.90;;;;;;5055168;28;20137;-36
2022/11/25 06:54:19;;;;;;;22.33;8.73;;;7.80;99.90;;;;;;5055745;28;20099;-36
2022/11/25 06:56:50;;;;;;;24.40;8.93;;;7.80;99.90;;;;;;5055825;28;20051;-35
2022/11/25 06:59:17;;;;;;;24.38;8.13;;;7.80;99.90;;;;;;5055461;28;20375;-39
2022/11/25 07:01:43;;;;;;;25.13;7.90;;;7.80;99.90;;;;;;5055733;28;20055;-36
2022/11/25 07:04:08;;;;;;;27.92;8.90;;;7.80;99.90;;;;;;5055614;28;20041;-39
2022/11/25 07:06:34;;;;;;;23.83;7.88;;;7.80;99.90;;;;;;5054448;28;20033;-36
2022/11/25 07:09:01;;;;;;;20.38;8.00;;;7.80;99.90;;;;;;5054356;28;20041;-40
2022/11/25 07:11:29;;;;;;;23.80;7.75;;;7.80;99.90;;;;;;5056057;28;20045;-39
2022/11/25 07:14:04;;;;;;;19.27;7.13;;;7.80;99.90;;;;;;5054358;28;20040;-40
2022/11/25 07:16:30;;;;;;;22.08;8.35;;;7.80;99.90;;;;;;5055034;28;20491;-41
2022/11/25 07:18:58;;;;;;;19.63;6.95;;;7.80;99.90;;;;;;5054306;28;20043;-39
2022/11/25 07:21:24;;;;;;;19.92;7.10;;;7.80;99.90;;;;;;5055445;28;20089;-38
2022/11/25 07:23:51;;;;;;;19.30;6.93;;;7.80;99.90;;;;;;5055362;28;20090;-41
2022/11/25 07:26:20;;;;;;;23.17;7.00;;;7.80;99.90;;;;;;5055351;28;20463;-40
2022/11/25 07:28:47;;;;;;;15.95;7.90;;;7.80;99.90;;;;;;5055547;28;20040;-41
2022/11/25 07:31:22;;;;;;;18.90;7.35;;;7.90;99.90;;;;;;5053668;28;20049;-39
2022/11/25 07:33:50;;;;;;;21.40;6.78;;;7.80;99.90;;;;;;5054807;28;20521;-41
2022/11/25 07:36:16;;;;;;;19.83;7.57;;;7.80;99.90;;;;;;5055089;28;20041;-41
2022/11/25 07:38:42;;;;;;;21.98;7.32;;;7.80;99.90;;;;;;5055140;28;20090;-41
2022/11/25 07:41:11;;;;;;;17.13;7.00;;;7.90;99.90;;;;;;5070794;28;20379;-40
2022/11/25 07:43:37;;;;;;;20.33;8.43;;;7.90;99.90;;;;;;5055533;28;20045;-41
2022/11/25 07:46:13;;;;;;;21.40;7.47;;;7.80;99.90;;;;;;5070926;28;20064;-39
2022/11/25 07:48:39;;;;;;;17.40;7.60;;;7.80;99.90;;;;;;5054965;28;20049;-41
2022/11/25 07:51:12;;;;;;;17.58;6.20;;;7.80;99.90;;;;;;5054859;28;20041;-38
2022/11/25 07:53:37;;;;;;;16.33;6.13;;;7.90;99.90;;;;;;5054848;28;20522;-42
2022/11/25 07:56:03;;;;;;;16.90;5.63;;;7.80;99.90;;;;;;5055068;28;20080;-41
2022/11/25 07:58:29;;;;;;;16.63;5.72;;;7.70;99.90;;;;;;5055002;28;20049;-39
2022/11/25 08:00:55;;;;;;;13.93;5.03;;;7.60;99.90;;;;;;5053752;28;20047;-41
2022/11/25 08:03:20;;;;;;;13.65;4.28;;;7.60;99.90;;;;;;5054337;28;20489;-41
2022/11/25 08:05:46;;;;;;;16.35;5.72;;;7.60;99.90;;;;;;5070388;28;20048;-41
2022/11/25 08:08:12;;;;;;;19.52;5.38;;;7.50;99.90;;;;;;5054500;28;20037;-37
2022/11/25 08:10:40;;;;;;;16.80;5.20;;;7.50;99.90;;;;;;5055075;28;20128;-41
2022/11/25 08:13:06;;;;;;;16.25;4.70;;;7.50;99.90;;;;;;5054138;28;20364;-36
2022/11/25 08:15:32;;;;;;;16.77;5.00;;;7.50;99.90;;;;;;5054327;28;20048;-40
2022/11/25 08:17:57;;;;;;;18.23;5.63;;;7.40;99.90;;;;;;5054633;28;20044;-42
2022/11/25 08:20:23;;;;;;;14.20;5.07;;;7.40;99.90;;;;;;5054363;28;20446;-40
2022/11/25 08:22:49;;;;;;;15.32;4.78;;;7.30;99.90;;;;;;5054437;28;20045;-42
2022/11/25 08:25:15;;;;;;;15.35;5.40;;;7.40;99.90;;;;;;5054822;28;20127;-41
2022/11/25 08:27:40;;;;;;;15.35;4.95;;;7.30;99.90;;;;;;5054222;28;20102;-41
2022/11/25 08:30:07;;;;;;;14.02;5.13;;;7.40;99.90;;;;;;5054160;28;20044;-41
2022/11/25 08:32:37;;;;;;;10.40;4.45;;;7.40;99.90;;;;;;5037012;28;20037;-40
2022/11/25 08:35:04;;;;;;;17.83;5.90;;;7.40;99.90;;;;;;5054038;28;20044;-39
2022/11/25 08:37:30;;;;;;;14.85;5.25;;;7.40;99.90;;;;;;5054025;28;20124;-41
2022/11/25 08:39:56;;;;;;;15.30;5.10;;;7.40;99.90;;;;;;5053036;28;20143;-41
2022/11/25 08:42:22;;;;;;;13.73;4.95;;;7.50;99.90;;;;;;5052142;28;20175;-41
2022/11/25 08:44:53;;;;;;;12.55;4.63;;;7.50;99.90;;;;;;5053701;28;20045;-42
2022/11/25 08:47:18;;;;;;;16.73;5.32;;;7.50;99.90;;;;;;5054160;28;20463;-39
2022/11/25 08:49:44;;;;;;;17.17;5.30;;;7.50;99.90;;;;;;5069712;28;20059;-37
2022/11/25 08:52:10;;;;;;;11.63;5.03;;;7.60;99.90;;;;;;5054395;28;20073;-39
2022/11/25 08:54:36;;;;;;;15.77;5.47;;;7.60;99.90;;;;;;5054206;28;20052;-41
2022/11/25 08:57:01;;;;;;;11.02;3.53;;;7.60;99.90;;;;;;5069340;28;20056;-41
2022/11/25 08:59:27;;;;;;;10.90;5.05;;;7.70;99.90;;;;;;5053746;28;20040;-42
2022/11/25 09:01:54;;;;;;;18.50;4.85;;;7.60;99.90;;;;;;5052731;28;20040;-41
2022/11/25 09:04:20;;;;;;;12.38;4.10;;;7.70;99.90;;;;;;5053677;28;20080;-40
2022/11/25 09:06:45;;;;;;;23.90;5.07;;;7.80;99.90;;;;;;5053990;28;20080;-41
2022/11/25 09:09:11;;;;;;;13.02;4.47;;;7.80;99.90;;;;;;5053656;28;20441;-40
2022/11/25 09:11:37;;;;;;;10.25;4.03;;;7.80;99.90;;;;;;5053293;28;20067;-41
2022/11/25 09:14:02;;;;;;;7.75;4.63;;;7.90;99.90;;;;;;5086437;28;20133;-40
2022/11/25 09:16:28;;;;;;;10.32;5.05;;;7.90;99.90;;;;;;5053472;28;20391;-41
2022/11/25 09:18:54;;;;;;;11.73;4.65;;;7.90;99.90;;;;;;5052950;28;20081;-39
2022/11/25 09:21:20;;;;;;;13.00;3.78;;;8.00;99.90;;;;;;5053119;28;20037;-40
2022/11/25 09:23:48;;;;;;;11.82;4.78;;;8.00;99.90;;;;;;5053696;28;20037;-42
2022/11/25 09:26:23;;;;;;;10.73;4.05;;;8.00;99.90;;;;;;5053462;28;20057;-42
2022/11/25 09:28:49;;;;;;;14.40;4.30;;;8.10;99.90;;;;;;5054067;28;20041;-42
2022/11/25 09:31:15;;;;;;;11.77;4.45;;;8.10;99.90;;;;;;5053443;28;20099;-42
2022/11/25 09:33:41;;;;;;;13.40;5.03;;;8.20;99.90;;;;;;5052259;28;20116;-41
2022/11/25 09:36:07;;;;;;;10.70;4.35;;;8.20;99.90;;;;;;5053389;28;20612;-38
2022/11/25 09:38:32;;;;;;;9.63;3.53;;;8.30;99.90;;;;;;5053642;28;20037;-40
2022/11/25 09:41:11;;;;;;;16.90;4.72;;;8.40;99.90;;;;;;5053358;28;20379;-38
2022/11/25 09:47:16;;;;;;;15.32;4.85;;;8.40;99.90;;;;;;5051277;28;20049;-38
2022/11/25 09:49:53;;;;;;;12.00;4.43;;;8.50;99.90;;;;;;5051588;28;20136;-40
2022/11/25 09:52:55;;;;;;;10.13;4.18;;;8.50;99.90;;;;;;5052708;28;20115;-41
2022/11/25 09:55:23;;;;;;;10.95;4.00;;;8.60;99.90;;;;;;5050973;28;20049;-41
2022/11/25 09:57:49;;;;;;;8.18;3.13;;;8.60;99.90;;;;;;5057561;28;20040;-41
2022/11/25 10:00:19;;;;;;;8.88;2.85;;;8.70;99.90;;;;;;5057782;28;20102;-40
2022/11/25 10:02:51;;;;;;;12.07;3.42;;;8.70;99.90;;;;;;5056903;28;20102;-38
2022/11/25 10:05:20;;;;;;;13.43;3.80;;;8.80;99.90;;;;;;5056868;28;20045;-40
2022/11/25 10:07:51;;;;;;;10.05;2.78;;;8.80;99.90;;;;;;5056777;28;20040;-41
2022/11/25 10:10:45;;;;;;;10.52;3.15;;;8.90;99.90;;;;;;5057066;28;20040;-41
2022/11/25 10:13:24;;;;;;;11.75;3.50;;;9.00;99.90;;;;;;5053902;28;20056;-41
2022/11/25 10:15:51;;;;;;;6.53;3.08;;;9.00;99.90;;;;;;5056617;28;20049;-40
2022/11/25 10:18:23;;;;;;;14.68;3.13;;;9.10;99.90;;;;;;5039049;28;20048;-37
2022/11/25 10:20:51;;;;;;;8.73;2.97;;;9.10;99.90;;;;;;5057260;28;20370;-40
2022/11/25 10:23:22;;;;;;;10.20;3.47;;;9.10;99.90;;;;;;5056158;28;20471;-38
2022/11/25 10:25:53;;;;;;;10.50;3.10;;;9.20;99.90;;;;;;5057061;28;20493;-40
2022/11/25 10:28:22;;;;;;;11.60;3.15;;;9.30;99.90;;;;;;5055848;28;20049;-40
2022/11/25 10:31:03;;;;;;;14.75;3.22;;;9.30;99.90;;;;;;5056406;28;20497;-41
2022/11/25 10:33:34;;;;;;;13.15;3.15;;;9.40;99.90;;;;;;5056501;28;20477;-38
2022/11/25 10:36:13;;;;;;;16.75;3.75;;;9.50;99.90;;;;;;5056677;28;20046;-39
2022/11/25 10:38:44;;;;;;;9.77;2.28;;;9.60;99.90;;;;;;5055221;28;20083;-40
2022/11/25 10:41:17;;;;;;;10.77;2.80;;;9.60;99.90;;;;;;5057104;28;20087;-36
2022/11/25 10:43:44;;;;;;;;;;;9.60;99.90;;;;;;5056883;28;20382;-39
2022/11/25 10:46:19;;;;;;;12.57;2.88;;;9.50;99.90;;;;;;5055016;28;19986;-37
2022/11/25 10:48:57;;;;;;;10.93;3.15;;;9.50;99.90;;;;;;5056305;28;20483;-36
2022/11/25 10:51:38;;;;;;;14.25;3.58;;;9.60;99.90;;;;;;5056633;28;20175;-36
2022/11/25 10:54:24;;;;;;;11.90;2.80;;;9.60;99.90;;;;;;5054950;28;20404;-36
2022/11/25 10:56:52;;;;;;;9.77;3.13;;;9.60;99.90;;;;;;5055304;28;20049;-38
2022/11/25 10:59:24;;;;;;;9.18;3.33;;;9.60;99.90;;;;;;5056149;28;20119;-36
2022/11/25 11:02:20;;;;;;;7.55;2.33;;;9.70;99.90;;;;;;5055820;28;20166;-36
2022/11/25 11:05:08;;;;;;;12.52;3.05;;;9.70;99.90;;;;;;5056001;28;20037;-35
2022/11/25 11:07:43;;;;;;;9.32;2.80;;;9.80;99.90;;;;;;5052025;28;20111;-37
2022/11/25 11:10:18;;;;;;;8.68;2.55;;;9.80;99.90;;;;;;5055709;28;20124;-38
2022/11/25 11:12:56;;;;;;;9.63;2.70;;;10.00;99.90;;;;;;5055645;28;20053;-36
2022/11/25 11:15:43;;;;;;;10.52;3.03;;;10.00;99.90;;;;;;5056125;28;20045;-37
2022/11/25 11:18:20;;;;;;;13.82;3.72;;;10.00;99.90;;;;;;5056359;28;20045;-37
2022/11/25 11:20:49;;;;;;;10.68;3.22;;;10.00;99.90;;;;;;5055534;28;20112;-36
2022/11/25 11:23:15;;;;;;;11.70;3.42;;;10.00;99.90;;;;;;5055363;28;20051;-37
2022/11/25 11:25:59;;;;;;;14.65;3.08;;;10.10;99.90;;;;;;5055639;28;20417;-36
2022/11/25 11:28:35;;;;;;;13.70;2.58;;;10.20;99.90;;;;;;5055419;28;20045;-35
2022/11/25 11:31:08;;;;;;;11.10;2.58;;;10.30;99.90;;;;;;5055294;28;20063;-35
2022/11/25 11:33:46;;;;;;;9.85;2.55;;;10.30;99.90;;;;;;5055274;28;20080;-36
2022/11/25 11:36:30;;;;;;;8.68;2.13;;;10.40;99.90;;;;;;5055217;28;20047;-37
2022/11/25 11:39:25;;;;;;;13.85;3.33;;;10.40;99.90;;;;;;5055690;28;20049;-36
2022/11/25 11:41:55;;;;;;;16.20;3.22;;;10.50;99.90;;;;;;5055151;28;20040;-36
2022/11/25 11:45:06;;;;;;;10.80;3.65;;;10.40;99.90;;;;;;5055238;28;20037;-35
2022/11/25 11:47:57;;;;;;;11.27;2.80;;;10.30;99.90;;;;;;5046603;28;20132;-36
2022/11/25 11:50:39;;;;;;;14.20;2.25;;;10.30;99.90;;;;;;5052201;28;20049;-35
2022/11/25 11:53:40;;;;;;;10.40;3.22;;;10.40;99.90;;;;;;5055084;28;20049;-36
2022/11/25 11:56:21;;;;;;;11.75;2.30;;;10.50;99.90;;;;;;5054766;28;20040;-35
2022/11/25 11:58:59;;;;;;;12.98;3.08;;;10.50;99.90;;;;;;5054787;28;20084;-35
2022/11/25 12:01:31;;;;;;;13.65;3.00;;;10.50;99.90;;;;;;5055025;28;20036;-37
2022/11/25 12:04:01;;;;;;;13.40;2.92;;;10.40;99.90;;;;;;5054487;28;20033;-36
2022/11/25 12:06:30;;;;;;;12.55;2.58;;;10.30;99.90;;;;;;5054907;28;20052;-36
2022/11/25 12:09:15;;;;;;;13.82;3.03;;;10.30;99.90;;;;;;5054495;28;20044;-36
2022/11/25 12:11:51;;;;;;;11.43;2.03;;;10.40;99.90;;;;;;5087957;28;20056;-37
2022/11/25 12:14:33;;;;;;;8.80;1.90;;;10.50;99.90;;;;;;5054517;28;20087;-36
2022/11/25 12:17:04;;;;;;;14.93;3.33;;;10.60;99.90;;;;;;5052954;28;20540;-35
2022/11/25 12:19:50;;;;;;;18.05;2.90;;;11.10;99.90;;;;;;5054360;28;20037;-36
2022/11/25 12:22:39;;;;;;;11.77;2.30;;;11.10;99.90;;;;;;5054059;28;20094;-35
2022/11/25 12:25:28;;;;;;;12.68;2.28;;;11.30;99.90;;;;;;5054301;28;20090;-34
2022/11/25 12:27:54;;;;;;;18.17;3.17;;;11.30;99.90;;;;;;5086587;28;20049;-35
2022/11/25 12:30:21;;;;;;;12.18;2.00;;;11.10;99.90;;;;;;5055011;28;20041;-35
2022/11/25 12:33:09;;;;;;;11.77;2.95;;;11.20;99.90;;;;;;5054691;28;20429;-37
2022/11/25 12:36:13;;;;;;;15.07;3.55;;;11.50;99.90;;;;;;5054169;28;20055;-36
2022/11/25 12:38:45;;;;;;;13.80;2.65;;;11.80;99.90;;;;;;5053717;28;20051;-39
2022/11/25 12:41:34;;;;;;;12.65;2.60;;;12.10;99.90;;;;;;5054027;28;20037;-38
2022/11/25 12:44:19;;;;;;;11.52;2.92;;;12.20;99.90;;;;;;5053074;28;20099;-35
2022/11/25 12:46:51;;;;;;;17.45;1.98;;;11.90;99.90;;;;;;5053945;28;20041;-35
2022/11/25 12:49:22;;;;;;;15.93;2.60;;;11.70;99.90;;;;;;5053843;28;20041;-35
2022/11/25 12:52:20;;;;;;;14.05;2.58;;;11.50;99.90;;;;;;5054449;28;20478;-35
2022/11/25 12:55:12;;;;;;;13.63;2.08;;;11.20;99.90;;;;;;5034085;28;20124;-35
2022/11/25 12:57:56;;;;;;;10.10;2.40;;;10.80;99.90;;;;;;5054383;28;20133;-37
2022/11/25 13:00:26;;;;;;;14.73;2.33;;;10.80;99.90;;;;;;5053683;28;20110;-35
2022/11/25 13:03:17;;;;;;;19.48;2.58;;;11.00;99.90;;;;;;5053714;28;20079;-37
2022/11/25 13:05:48;;;;;;;15.38;2.30;;;11.40;99.90;;;;;;5053581;28;20471;-35
2022/11/25 13:08:36;;;;;;;20.13;3.75;;;11.70;99.90;;;;;;5053610;28;20076;-35